sensor_id;sensor_type;location;lat;lon;timestamp;temperature;humidity
6244;DHT22;3155;49.940;8.450;2022-11-15T00:01:09;6.00;99.90
6244;DHT22;3155;49.940;8.450;2022-11-15T00:03:40;6.10;99.90
6244;DHT22;3155;49.940;8.450;2022-11-15T00:06:08;6.30;99.90
6244;DHT22;3155;49.940;8.450;2022-11-15T00:08:35;6.40;99.90
6244;DHT22;3155;49.940;8.450;2022-11-15T00:11:02;6.40;99.90
6244;DHT22;3155;49.940;8.450;2022-11-15T00:13:30;6.40;99.90
6244;DHT22;3155;49.940;8.450;2022-11-15T00:16:00;6.50;99.90
6244;DHT22;3155;49.940;8.450;2022-11-15T00:18:28;6.50;99.90
6244;DHT22;3155;49.940;8.450;2022-11-15T00:20:55;6.60;99.90
6244;DHT22;3155;49.940;8.450;2022-11-15T00:23:22;6.60;99.90
6244;DHT22;3155;49.940;8.450;2022-11-15T00:25:55;6.70;99.90
6244;DHT22;3155;49.940;8.450;2022-11-15T00:28:23;6.70;99.90
6244;DHT22;3155;49.940;8.450;2022-11-15T00:30:52;6.70;99.90
6244;DHT22;3155;49.940;8.450;2022-11-15T00:33:19;6.80;99.90
6244;DHT22;3155;49.940;8.450;2022-11-15T00:35:46;6.80;99.90
6244;DHT22;3155;49.940;8.450;2022-11-15T00:38:13;6.80;99.90
6244;DHT22;3155;49.940;8.450;2022-11-15T00:40:39;6.80;99.90
6244;DHT22;3155;49.940;8.450;2022-11-15T00:43:06;6.80;99.90
6244;DHT22;3155;49.940;8.450;2022-11-15T00:45:33;6.80;99.90
6244;DHT22;3155;49.940;8.450;2022-11-15T00:48:00;6.90;99.90
6244;DHT22;3155;49.940;8.450;2022-11-15T00:50:29;6.90;99.90
6244;DHT22;3155;49.940;8.450;2022-11-15T00:52:56;6.90;99.90
6244;DHT22;3155;49.940;8.450;2022-11-15T00:55:23;6.90;99.90
6244;DHT22;3155;49.940;8.450;2022-11-15T00:57:49;6.90;99.90
6244;DHT22;3155;49.940;8.450;2022-11-15T01:00:16;6.90;99.90
6244;DHT22;3155;49.940;8.450;2022-11-15T01:02:46;6.90;99.90
6244;DHT22;3155;49.940;8.450;2022-11-15T01:05:13;6.80;99.90
6244;DHT22;3155;49.940;8.450;2022-11-15T01:07:42;6.80;99.90
6244;DHT22;3155;49.940;8.450;2022-11-15T01:10:09;6.80;99.90
6244;DHT22;3155;49.940;8.450;2022-11-15T01:12:35;6.70;99.90
6244;DHT22;3155;49.940;8.450;2022-11-15T01:15:03;6.60;99.90
6244;DHT22;3155;49.940;8.450;2022-11-15T01:17:30;6.60;99.90
6244;DHT22;3155;49.940;8.450;2022-11-15T01:20:00;6.70;99.90
6244;DHT22;3155;49.940;8.450;2022-11-15T01:22:27;6.80;99.90
6244;DHT22;3155;49.940;8.450;2022-11-15T01:24:54;6.80;99.90
6244;DHT22;3155;49.940;8.450;2022-11-15T01:27:21;6.80;99.90
6244;DHT22;3155;49.940;8.450;2022-11-15T01:29:47;6.90;99.90
6244;DHT22;3155;49.940;8.450;2022-11-15T01:32:14;6.90;99.90
6244;DHT22;3155;49.940;8.450;2022-11-15T01:34:41;6.90;99.90
6244;DHT22;3155;49.940;8.450;2022-11-15T01:37:08;7.10;99.90
6244;DHT22;3155;49.940;8.450;2022-11-15T01:39:37;7.10;99.90
6244;DHT22;3155;49.940;8.450;2022-11-15T01:42:03;7.10;99.90
6244;DHT22;3155;49.940;8.450;2022-11-15T01:44:50;7.10;99.90
6244;DHT22;3155;49.940;8.450;2022-11-15T01:47:31;7.10;99.90
6244;DHT22;3155;49.940;8.450;2022-11-15T01:50:06;7.10;99.90
6244;DHT22;3155;49.940;8.450;2022-11-15T01:52:35;7.10;99.90
6244;DHT22;3155;49.940;8.450;2022-11-15T01:55:14;7.10;99.90
6244;DHT22;3155;49.940;8.450;2022-11-15T01:57:47;7.10;99.90
6244;DHT22;3155;49.940;8.450;2022-11-15T02:00:22;7.00;99.90
6244;DHT22;3155;49.940;8.450;2022-11-15T02:02:55;7.00;99.90
6244;DHT22;3155;49.940;8.450;2022-11-15T02:05:21;7.00;99.90
6244;DHT22;3155;49.940;8.450;2022-11-15T02:07:49;7.00;99.90
6244;DHT22;3155;49.940;8.450;2022-11-15T02:10:21;7.00;99.90
6244;DHT22;3155;49.940;8.450;2022-11-15T02:12:52;7.10;99.90
6244;DHT22;3155;49.940;8.450;2022-11-15T02:15:19;7.10;99.90
6244;DHT22;3155;49.940;8.450;2022-11-15T02:18:23;7.10;99.90
6244;DHT22;3155;49.940;8.450;2022-11-15T02:21:46;7.10;99.90
6244;DHT22;3155;49.940;8.450;2022-11-15T02:24:05;7.00;99.90
6244;DHT22;3155;49.940;8.450;2022-11-15T02:35:06;7.20;99.90
6244;DHT22;3155;49.940;8.450;2022-11-15T02:42:50;7.40;99.90
6244;DHT22;3155;49.940;8.450;2022-11-15T02:45:48;7.40;99.90
6244;DHT22;3155;49.940;8.450;2022-11-15T02:48:16;7.40;99.90
6244;DHT22;3155;49.940;8.450;2022-11-15T02:50:44;7.40;99.90
6244;DHT22;3155;49.940;8.450;2022-11-15T02:53:11;7.60;99.90
6244;DHT22;3155;49.940;8.450;2022-11-15T02:55:42;7.60;99.90
6244;DHT22;3155;49.940;8.450;2022-11-15T03:09:10;7.90;99.90
6244;DHT22;3155;49.940;8.450;2022-11-15T03:11:46;8.00;99.90
6244;DHT22;3155;49.940;8.450;2022-11-15T03:14:51;8.00;99.90
6244;DHT22;3155;49.940;8.450;2022-11-15T03:17:26;7.90;99.90
6244;DHT22;3155;49.940;8.450;2022-11-15T03:19:56;7.90;99.90
6244;DHT22;3155;49.940;8.450;2022-11-15T03:22:26;7.90;99.90
6244;DHT22;3155;49.940;8.450;2022-11-15T03:24:57;7.90;99.90
6244;DHT22;3155;49.940;8.450;2022-11-15T03:27:29;7.90;99.90
6244;DHT22;3155;49.940;8.450;2022-11-15T03:30:00;7.90;99.90
6244;DHT22;3155;49.940;8.450;2022-11-15T03:32:30;7.90;99.90
6244;DHT22;3155;49.940;8.450;2022-11-15T03:35:09;7.90;99.90
6244;DHT22;3155;49.940;8.450;2022-11-15T03:40:05;8.10;99.90
6244;DHT22;3155;49.940;8.450;2022-11-15T03:45:32;8.20;99.90
6244;DHT22;3155;49.940;8.450;2022-11-15T03:48:13;8.30;99.90
6244;DHT22;3155;49.940;8.450;2022-11-15T03:50:42;8.30;99.90
6244;DHT22;3155;49.940;8.450;2022-11-15T03:53:10;8.30;99.90
6244;DHT22;3155;49.940;8.450;2022-11-15T03:55:37;8.30;99.90
6244;DHT22;3155;49.940;8.450;2022-11-15T03:58:04;8.30;99.90
6244;DHT22;3155;49.940;8.450;2022-11-15T04:00:31;8.30;99.90
6244;DHT22;3155;49.940;8.450;2022-11-15T04:02:59;8.30;99.90
6244;DHT22;3155;49.940;8.450;2022-11-15T04:05:26;8.30;99.70
6244;DHT22;3155;49.940;8.450;2022-11-15T04:07:56;8.30;96.50
6244;DHT22;3155;49.940;8.450;2022-11-15T04:10:23;8.30;93.20
6244;DHT22;3155;49.940;8.450;2022-11-15T04:12:49;8.30;90.60
6244;DHT22;3155;49.940;8.450;2022-11-15T04:15:19;8.30;88.00
6244;DHT22;3155;49.940;8.450;2022-11-15T04:17:48;8.30;88.20
6244;DHT22;3155;49.940;8.450;2022-11-15T04:20:27;8.30;84.30
6244;DHT22;3155;49.940;8.450;2022-11-15T04:23:14;8.40;82.80
6244;DHT22;3155;49.940;8.450;2022-11-15T04:26:09;8.40;76.70
6244;DHT22;3155;49.940;8.450;2022-11-15T04:28:44;8.40;72.20
6244;DHT22;3155;49.940;8.450;2022-11-15T04:31:29;8.40;68.40
6244;DHT22;3155;49.940;8.450;2022-11-15T04:33:57;8.40;60.50
6244;DHT22;3155;49.940;8.450;2022-11-15T04:36:24;8.40;50.10
6244;DHT22;3155;49.940;8.450;2022-11-15T04:39:09;8.40;37.50
6244;DHT22;3155;49.940;8.450;2022-11-15T04:41:39;8.40;19.70
6244;DHT22;3155;49.940;8.450;2022-11-15T04:44:05;8.50;10.90
6244;DHT22;3155;49.940;8.450;2022-11-15T04:46:32;8.50;1.00
6244;DHT22;3155;49.940;8.450;2022-11-15T04:49:01;8.50;1.00
6244;DHT22;3155;49.940;8.450;2022-11-15T04:51:28;8.50;1.00
6244;DHT22;3155;49.940;8.450;2022-11-15T04:53:55;8.50;1.00
6244;DHT22;3155;49.940;8.450;2022-11-15T04:56:22;8.60;1.00
6244;DHT22;3155;49.940;8.450;2022-11-15T04:58:49;8.60;1.00
6244;DHT22;3155;49.940;8.450;2022-11-15T05:01:16;8.60;1.00
6244;DHT22;3155;49.940;8.450;2022-11-15T05:03:43;8.60;1.00
6244;DHT22;3155;49.940;8.450;2022-11-15T05:06:29;8.60;1.00
6244;DHT22;3155;49.940;8.450;2022-11-15T05:08:56;8.60;1.00
6244;DHT22;3155;49.940;8.450;2022-11-15T05:11:23;8.60;1.00
6244;DHT22;3155;49.940;8.450;2022-11-15T05:13:50;8.60;1.00
6244;DHT22;3155;49.940;8.450;2022-11-15T05:16:17;8.60;1.00
6244;DHT22;3155;49.940;8.450;2022-11-15T05:18:44;8.60;1.00
6244;DHT22;3155;49.940;8.450;2022-11-15T05:21:14;8.60;1.00
6244;DHT22;3155;49.940;8.450;2022-11-15T05:23:41;8.60;1.00
6244;DHT22;3155;49.940;8.450;2022-11-15T05:26:08;8.60;1.00
6244;DHT22;3155;49.940;8.450;2022-11-15T05:28:36;8.60;1.00
6244;DHT22;3155;49.940;8.450;2022-11-15T05:31:06;8.70;99.90
6244;DHT22;3155;49.940;8.450;2022-11-15T05:33:35;8.70;99.90
6244;DHT22;3155;49.940;8.450;2022-11-15T05:39:20;8.80;34.00
6244;DHT22;3155;49.940;8.450;2022-11-15T05:41:50;8.70;1.00
6244;DHT22;3155;49.940;8.450;2022-11-15T05:44:23;8.70;1.00
6244;DHT22;3155;49.940;8.450;2022-11-15T05:46:51;8.80;99.90
6244;DHT22;3155;49.940;8.450;2022-11-15T05:49:22;8.80;99.90
6244;DHT22;3155;49.940;8.450;2022-11-15T05:51:49;8.80;99.90
6244;DHT22;3155;49.940;8.450;2022-11-15T05:54:17;8.80;99.90
6244;DHT22;3155;49.940;8.450;2022-11-15T05:56:46;8.70;98.70
6244;DHT22;3155;49.940;8.450;2022-11-15T05:59:20;8.70;99.90
6244;DHT22;3155;49.940;8.450;2022-11-15T06:01:47;8.70;99.90
6244;DHT22;3155;49.940;8.450;2022-11-15T06:04:13;8.60;99.90
6244;DHT22;3155;49.940;8.450;2022-11-15T06:06:40;8.60;1.00
6244;DHT22;3155;49.940;8.450;2022-11-15T06:09:08;8.60;1.00
6244;DHT22;3155;49.940;8.450;2022-11-15T06:11:35;8.60;41.30
6244;DHT22;3155;49.940;8.450;2022-11-15T06:14:01;8.60;99.90
6244;DHT22;3155;49.940;8.450;2022-11-15T06:16:28;8.60;99.90
6244;DHT22;3155;49.940;8.450;2022-11-15T06:18:57;8.60;99.90
6244;DHT22;3155;49.940;8.450;2022-11-15T06:21:24;8.60;99.90
6244;DHT22;3155;49.940;8.450;2022-11-15T06:23:51;8.60;99.90
6244;DHT22;3155;49.940;8.450;2022-11-15T06:26:17;8.60;99.90
6244;DHT22;3155;49.940;8.450;2022-11-15T06:31:55;8.60;99.90
6244;DHT22;3155;49.940;8.450;2022-11-15T06:34:21;8.50;99.90
6244;DHT22;3155;49.940;8.450;2022-11-15T06:36:48;8.40;99.90
6244;DHT22;3155;49.940;8.450;2022-11-15T06:39:15;8.40;99.90
6244;DHT22;3155;49.940;8.450;2022-11-15T06:41:42;8.40;99.90
6244;DHT22;3155;49.940;8.450;2022-11-15T06:44:08;8.40;1.00
6244;DHT22;3155;49.940;8.450;2022-11-15T06:46:35;8.30;1.00
6244;DHT22;3155;49.940;8.450;2022-11-15T06:49:04;8.40;1.00
6244;DHT22;3155;49.940;8.450;2022-11-15T06:51:35;8.40;1.00
6244;DHT22;3155;49.940;8.450;2022-11-15T06:54:02;8.50;1.00
6244;DHT22;3155;49.940;8.450;2022-11-15T06:56:29;8.50;1.00
6244;DHT22;3155;49.940;8.450;2022-11-15T06:58:56;8.60;1.00
6244;DHT22;3155;49.940;8.450;2022-11-15T07:01:22;8.60;1.00
6244;DHT22;3155;49.940;8.450;2022-11-15T07:03:49;8.60;1.00
6244;DHT22;3155;49.940;8.450;2022-11-15T07:06:16;8.70;1.00
6244;DHT22;3155;49.940;8.450;2022-11-15T07:08:44;8.70;1.00
6244;DHT22;3155;49.940;8.450;2022-11-15T07:11:12;8.80;1.00
6244;DHT22;3155;49.940;8.450;2022-11-15T07:13:57;8.80;1.00
6244;DHT22;3155;49.940;8.450;2022-11-15T07:16:43;8.80;1.00
6244;DHT22;3155;49.940;8.450;2022-11-15T07:19:10;8.90;1.00
6244;DHT22;3155;49.940;8.450;2022-11-15T07:21:36;9.10;26.80
6244;DHT22;3155;49.940;8.450;2022-11-15T07:24:18;9.30;70.30
6244;DHT22;3155;49.940;8.450;2022-11-15T07:26:51;9.30;51.30
6244;DHT22;3155;49.940;8.450;2022-11-15T07:29:18;9.30;10.60
6244;DHT22;3155;49.940;8.450;2022-11-15T07:31:44;9.30;1.00
6244;DHT22;3155;49.940;8.450;2022-11-15T07:34:11;9.20;1.00
6244;DHT22;3155;49.940;8.450;2022-11-15T07:36:40;9.30;1.00
6244;DHT22;3155;49.940;8.450;2022-11-15T07:39:07;9.30;1.00
6244;DHT22;3155;49.940;8.450;2022-11-15T07:41:34;9.40;1.00
6244;DHT22;3155;49.940;8.450;2022-11-15T07:44:03;9.40;1.00
6244;DHT22;3155;49.940;8.450;2022-11-15T07:46:32;9.40;1.00
6244;DHT22;3155;49.940;8.450;2022-11-15T07:48:59;9.50;1.00
6244;DHT22;3155;49.940;8.450;2022-11-15T07:51:25;9.50;1.00
6244;DHT22;3155;49.940;8.450;2022-11-15T07:53:52;9.60;1.00
6244;DHT22;3155;49.940;8.450;2022-11-15T07:56:27;9.70;1.00
6244;DHT22;3155;49.940;8.450;2022-11-15T07:58:56;9.60;99.90
6244;DHT22;3155;49.940;8.450;2022-11-15T08:01:26;9.70;99.90
6244;DHT22;3155;49.940;8.450;2022-11-15T08:03:53;9.70;99.90
6244;DHT22;3155;49.940;8.450;2022-11-15T08:06:20;9.80;99.90
6244;DHT22;3155;49.940;8.450;2022-11-15T08:08:47;9.90;99.90
6244;DHT22;3155;49.940;8.450;2022-11-15T08:11:14;10.00;1.00
6244;DHT22;3155;49.940;8.450;2022-11-15T08:13:55;10.10;99.90
6244;DHT22;3155;49.940;8.450;2022-11-15T08:16:21;10.30;99.90
6244;DHT22;3155;49.940;8.450;2022-11-15T08:18:48;10.50;1.00
6244;DHT22;3155;49.940;8.450;2022-11-15T08:21:18;10.60;99.90
6244;DHT22;3155;49.940;8.450;2022-11-15T08:23:46;10.70;99.90
6244;DHT22;3155;49.940;8.450;2022-11-15T08:26:12;10.70;99.90
6244;DHT22;3155;49.940;8.450;2022-11-15T08:28:39;10.70;99.90
6244;DHT22;3155;49.940;8.450;2022-11-15T08:31:06;10.50;99.90
6244;DHT22;3155;49.940;8.450;2022-11-15T08:33:36;10.50;99.90
6244;DHT22;3155;49.940;8.450;2022-11-15T08:36:02;10.50;99.90
6244;DHT22;3155;49.940;8.450;2022-11-15T08:38:29;10.50;99.90
6244;DHT22;3155;49.940;8.450;2022-11-15T08:41:09;10.40;99.90
6244;DHT22;3155;49.940;8.450;2022-11-15T08:43:37;10.50;99.90
6244;DHT22;3155;49.940;8.450;2022-11-15T08:46:04;10.40;99.90
6244;DHT22;3155;49.940;8.450;2022-11-15T08:48:30;10.50;99.90
6244;DHT22;3155;49.940;8.450;2022-11-15T08:50:58;10.70;99.90
6244;DHT22;3155;49.940;8.450;2022-11-15T08:53:25;10.80;99.90
6244;DHT22;3155;49.940;8.450;2022-11-15T08:55:52;11.00;99.90
6244;DHT22;3155;49.940;8.450;2022-11-15T08:58:21;11.00;99.90
6244;DHT22;3155;49.940;8.450;2022-11-15T09:00:48;11.10;99.90
6244;DHT22;3155;49.940;8.450;2022-11-15T09:03:23;11.20;99.90
6244;DHT22;3155;49.940;8.450;2022-11-15T09:05:54;11.10;99.90
6244;DHT22;3155;49.940;8.450;2022-11-15T09:08:24;11.10;99.90
6244;DHT22;3155;49.940;8.450;2022-11-15T09:11:11;11.00;99.90
6244;DHT22;3155;49.940;8.450;2022-11-15T09:13:39;11.10;99.90
6244;DHT22;3155;49.940;8.450;2022-11-15T09:16:06;11.10;99.90
6244;DHT22;3155;49.940;8.450;2022-11-15T09:18:33;11.20;99.90
6244;DHT22;3155;49.940;8.450;2022-11-15T09:21:00;11.30;99.90
6244;DHT22;3155;49.940;8.450;2022-11-15T09:23:28;11.30;99.90
6244;DHT22;3155;49.940;8.450;2022-11-15T09:26:03;11.20;99.90
6244;DHT22;3155;49.940;8.450;2022-11-15T09:28:31;11.30;99.90
6244;DHT22;3155;49.940;8.450;2022-11-15T09:31:01;11.50;99.90
6244;DHT22;3155;49.940;8.450;2022-11-15T09:33:28;11.70;99.90
6244;DHT22;3155;49.940;8.450;2022-11-15T09:36:08;11.90;99.90
6244;DHT22;3155;49.940;8.450;2022-11-15T09:38:35;12.10;99.90
6244;DHT22;3155;49.940;8.450;2022-11-15T09:41:21;12.20;99.90
6244;DHT22;3155;49.940;8.450;2022-11-15T09:46:53;12.50;99.90
6244;DHT22;3155;49.940;8.450;2022-11-15T09:49:22;12.60;99.90
6244;DHT22;3155;49.940;8.450;2022-11-15T09:51:51;12.70;99.90
6244;DHT22;3155;49.940;8.450;2022-11-15T09:54:28;12.80;99.90
6244;DHT22;3155;49.940;8.450;2022-11-15T10:00:15;12.60;99.90
6244;DHT22;3155;49.940;8.450;2022-11-15T10:03:15;12.40;99.90
6244;DHT22;3155;49.940;8.450;2022-11-15T10:05:47;12.20;99.90
6244;DHT22;3155;49.940;8.450;2022-11-15T10:11:09;11.90;99.90
6244;DHT22;3155;49.940;8.450;2022-11-15T10:14:01;11.80;99.90
6244;DHT22;3155;49.940;8.450;2022-11-15T10:22:38;11.80;99.90
6244;DHT22;3155;49.940;8.450;2022-11-15T10:27:39;11.80;99.90
6244;DHT22;3155;49.940;8.450;2022-11-15T10:30:17;11.70;99.90
6244;DHT22;3155;49.940;8.450;2022-11-15T10:32:48;11.70;99.90
6244;DHT22;3155;49.940;8.450;2022-11-15T10:35:28;11.60;99.90
6244;DHT22;3155;49.940;8.450;2022-11-15T10:38:11;11.50;99.90
6244;DHT22;3155;49.940;8.450;2022-11-15T10:40:41;11.50;99.90
6244;DHT22;3155;49.940;8.450;2022-11-15T10:43:17;11.40;99.90
6244;DHT22;3155;49.940;8.450;2022-11-15T10:45:45;11.30;99.90
6244;DHT22;3155;49.940;8.450;2022-11-15T10:48:21;11.20;99.90
6244;DHT22;3155;49.940;8.450;2022-11-15T10:50:50;11.40;99.90
6244;DHT22;3155;49.940;8.450;2022-11-15T10:53:36;11.50;99.90
6244;DHT22;3155;49.940;8.450;2022-11-15T10:56:08;11.60;99.90
6244;DHT22;3155;49.940;8.450;2022-11-15T10:58:43;11.60;99.90
6244;DHT22;3155;49.940;8.450;2022-11-15T11:01:47;11.70;99.90
6244;DHT22;3155;49.940;8.450;2022-11-15T11:04:14;11.80;99.90
6244;DHT22;3155;49.940;8.450;2022-11-15T11:06:57;11.80;99.90
6244;DHT22;3155;49.940;8.450;2022-11-15T11:09:38;11.90;99.90
6244;DHT22;3155;49.940;8.450;2022-11-15T11:12:09;12.10;99.90
6244;DHT22;3155;49.940;8.450;2022-11-15T11:14:38;12.40;99.90
6244;DHT22;3155;49.940;8.450;2022-11-15T11:17:31;12.40;99.90
6244;DHT22;3155;49.940;8.450;2022-11-15T11:20:37;12.40;99.90
6244;DHT22;3155;49.940;8.450;2022-11-15T11:40:35;12.90;99.90
6244;DHT22;3155;49.940;8.450;2022-11-15T11:49:08;12.60;99.90
6244;DHT22;3155;49.940;8.450;2022-11-15T11:51:46;12.60;99.90
6244;DHT22;3155;49.940;8.450;2022-11-15T12:00:26;12.70;99.90
6244;DHT22;3155;49.940;8.450;2022-11-15T12:10:58;13.30;99.90
6244;DHT22;3155;49.940;8.450;2022-11-15T12:13:29;13.40;99.90
6244;DHT22;3155;49.940;8.450;2022-11-15T12:16:23;13.60;99.90
6244;DHT22;3155;49.940;8.450;2022-11-15T12:18:56;13.80;99.90
6244;DHT22;3155;49.940;8.450;2022-11-15T12:21:34;13.90;99.90
6244;DHT22;3155;49.940;8.450;2022-11-15T12:24:25;14.00;99.90
6244;DHT22;3155;49.940;8.450;2022-11-15T12:27:05;13.80;99.90
6244;DHT22;3155;49.940;8.450;2022-11-15T12:29:42;13.70;99.90
6244;DHT22;3155;49.940;8.450;2022-11-15T12:32:37;13.40;99.90
6244;DHT22;3155;49.940;8.450;2022-11-15T12:35:20;13.10;99.90
6244;DHT22;3155;49.940;8.450;2022-11-15T12:37:52;13.00;99.90
6244;DHT22;3155;49.940;8.450;2022-11-15T12:40:33;13.00;99.90
6244;DHT22;3155;49.940;8.450;2022-11-15T12:43:33;13.10;99.90
6244;DHT22;3155;49.940;8.450;2022-11-15T12:46:02;13.20;99.90
6244;DHT22;3155;49.940;8.450;2022-11-15T12:51:03;13.30;99.90
6244;DHT22;3155;49.940;8.450;2022-11-15T12:53:32;13.40;99.90
6244;DHT22;3155;49.940;8.450;2022-11-15T12:56:15;13.60;99.90
6244;DHT22;3155;49.940;8.450;2022-11-15T12:58:59;13.70;99.90
6244;DHT22;3155;49.940;8.450;2022-11-15T13:06:56;13.70;99.90
6244;DHT22;3155;49.940;8.450;2022-11-15T13:14:57;13.60;99.90
6244;DHT22;3155;49.940;8.450;2022-11-15T13:19:56;13.80;99.90
6244;DHT22;3155;49.940;8.450;2022-11-15T13:22:26;13.90;99.90
6244;DHT22;3155;49.940;8.450;2022-11-15T13:27:47;13.90;99.90
6244;DHT22;3155;49.940;8.450;2022-11-15T13:30:29;13.80;99.90
6244;DHT22;3155;49.940;8.450;2022-11-15T13:33:06;13.80;99.90
6244;DHT22;3155;49.940;8.450;2022-11-15T13:35:40;13.80;99.90
6244;DHT22;3155;49.940;8.450;2022-11-15T13:38:19;13.70;99.90
6244;DHT22;3155;49.940;8.450;2022-11-15T13:40:46;13.60;99.90
6244;DHT22;3155;49.940;8.450;2022-11-15T13:46:17;13.70;99.90
6244;DHT22;3155;49.940;8.450;2022-11-15T13:48:57;13.80;99.90
6244;DHT22;3155;49.940;8.450;2022-11-15T13:56:42;13.70;99.90
6244;DHT22;3155;49.940;8.450;2022-11-15T13:59:24;13.50;99.90
6244;DHT22;3155;49.940;8.450;2022-11-15T14:01:53;13.50;99.90
6244;DHT22;3155;49.940;8.450;2022-11-15T14:04:23;13.50;99.90
6244;DHT22;3155;49.940;8.450;2022-11-15T14:06:56;13.50;99.90
6244;DHT22;3155;49.940;8.450;2022-11-15T14:14:54;13.40;99.90
6244;DHT22;3155;49.940;8.450;2022-11-15T14:17:34;13.40;99.90
6244;DHT22;3155;49.940;8.450;2022-11-15T14:20:02;13.30;99.90
6244;DHT22;3155;49.940;8.450;2022-11-15T14:25:53;13.00;99.90
6244;DHT22;3155;49.940;8.450;2022-11-15T14:30:54;12.80;99.90
6244;DHT22;3155;49.940;8.450;2022-11-15T14:35:57;12.70;99.90
6244;DHT22;3155;49.940;8.450;2022-11-15T14:38:24;12.60;99.90
6244;DHT22;3155;49.940;8.450;2022-11-15T14:40:54;12.60;99.90
6244;DHT22;3155;49.940;8.450;2022-11-15T14:43:29;12.60;99.90
6244;DHT22;3155;49.940;8.450;2022-11-15T14:45:56;12.50;99.90
6244;DHT22;3155;49.940;8.450;2022-11-15T14:48:23;12.40;99.90
6244;DHT22;3155;49.940;8.450;2022-11-15T14:50:50;12.40;99.90
6244;DHT22;3155;49.940;8.450;2022-11-15T14:53:17;12.40;99.90
6244;DHT22;3155;49.940;8.450;2022-11-15T14:55:45;12.40;99.90
6244;DHT22;3155;49.940;8.450;2022-11-15T14:58:11;12.30;99.90
6244;DHT22;3155;49.940;8.450;2022-11-15T15:00:41;12.30;99.90
6244;DHT22;3155;49.940;8.450;2022-11-15T15:03:09;12.30;99.90
6244;DHT22;3155;49.940;8.450;2022-11-15T15:05:43;12.30;99.90
6244;DHT22;3155;49.940;8.450;2022-11-15T15:08:10;12.30;99.90
6244;DHT22;3155;49.940;8.450;2022-11-15T15:10:40;12.30;99.90
6244;DHT22;3155;49.940;8.450;2022-11-15T15:15:48;12.30;99.90
6244;DHT22;3155;49.940;8.450;2022-11-15T15:18:18;12.20;99.90
6244;DHT22;3155;49.940;8.450;2022-11-15T15:20:54;12.10;99.90
6244;DHT22;3155;49.940;8.450;2022-11-15T15:23:22;12.10;99.90
6244;DHT22;3155;49.940;8.450;2022-11-15T15:25:50;12.00;99.90
6244;DHT22;3155;49.940;8.450;2022-11-15T15:28:19;11.90;99.90
6244;DHT22;3155;49.940;8.450;2022-11-15T15:30:45;11.90;99.90
6244;DHT22;3155;49.940;8.450;2022-11-15T15:33:12;11.80;99.90
6244;DHT22;3155;49.940;8.450;2022-11-15T15:35:39;11.70;99.90
6244;DHT22;3155;49.940;8.450;2022-11-15T15:38:11;11.70;99.90
6244;DHT22;3155;49.940;8.450;2022-11-15T15:40:38;11.60;99.90
6244;DHT22;3155;49.940;8.450;2022-11-15T15:43:05;11.60;99.90
6244;DHT22;3155;49.940;8.450;2022-11-15T15:45:37;11.50;99.90
6244;DHT22;3155;49.940;8.450;2022-11-15T15:48:08;11.50;99.90
6244;DHT22;3155;49.940;8.450;2022-11-15T15:50:36;11.50;99.90
6244;DHT22;3155;49.940;8.450;2022-11-15T15:53:04;11.50;99.90
6244;DHT22;3155;49.940;8.450;2022-11-15T15:55:31;11.50;99.90
6244;DHT22;3155;49.940;8.450;2022-11-15T15:57:58;11.40;99.90
6244;DHT22;3155;49.940;8.450;2022-11-15T16:00:25;11.40;99.90
6244;DHT22;3155;49.940;8.450;2022-11-15T16:02:52;11.30;99.90
6244;DHT22;3155;49.940;8.450;2022-11-15T16:05:20;11.20;99.90
6244;DHT22;3155;49.940;8.450;2022-11-15T16:07:48;11.20;99.90
6244;DHT22;3155;49.940;8.450;2022-11-15T16:10:29;11.20;99.90
6244;DHT22;3155;49.940;8.450;2022-11-15T16:12:57;11.20;99.90
6244;DHT22;3155;49.940;8.450;2022-11-15T16:15:27;11.10;99.90
6244;DHT22;3155;49.940;8.450;2022-11-15T16:17:57;11.10;99.90
6244;DHT22;3155;49.940;8.450;2022-11-15T16:20:36;11.10;99.90
6244;DHT22;3155;49.940;8.450;2022-11-15T16:23:05;11.10;99.90
6244;DHT22;3155;49.940;8.450;2022-11-15T16:31:07;11.00;99.90
6244;DHT22;3155;49.940;8.450;2022-11-15T16:33:35;10.90;99.90
6244;DHT22;3155;49.940;8.450;2022-11-15T16:36:04;10.80;99.90
6244;DHT22;3155;49.940;8.450;2022-11-15T16:38:31;10.70;99.90
6244;DHT22;3155;49.940;8.450;2022-11-15T16:40:58;10.70;99.90
6244;DHT22;3155;49.940;8.450;2022-11-15T16:43:25;10.60;99.90
6244;DHT22;3155;49.940;8.450;2022-11-15T16:45:52;10.70;99.90
6244;DHT22;3155;49.940;8.450;2022-11-15T16:48:25;10.60;99.90
6244;DHT22;3155;49.940;8.450;2022-11-15T16:50:57;10.60;99.90
6244;DHT22;3155;49.940;8.450;2022-11-15T16:53:25;10.50;99.90
6244;DHT22;3155;49.940;8.450;2022-11-15T16:56:01;10.40;99.90
6244;DHT22;3155;49.940;8.450;2022-11-15T16:58:29;10.40;99.90
6244;DHT22;3155;49.940;8.450;2022-11-15T17:00:56;10.30;99.90
6244;DHT22;3155;49.940;8.450;2022-11-15T17:03:25;10.30;99.90
6244;DHT22;3155;49.940;8.450;2022-11-15T17:05:57;10.30;1.00
6244;DHT22;3155;49.940;8.450;2022-11-15T17:08:25;10.30;99.90
6244;DHT22;3155;49.940;8.450;2022-11-15T17:10:53;10.30;77.20
6244;DHT22;3155;49.940;8.450;2022-11-15T17:13:23;10.20;97.80
6244;DHT22;3155;49.940;8.450;2022-11-15T17:15:50;10.20;99.90
6244;DHT22;3155;49.940;8.450;2022-11-15T17:18:28;10.20;99.90
6244;DHT22;3155;49.940;8.450;2022-11-15T17:20:55;10.30;1.00
6244;DHT22;3155;49.940;8.450;2022-11-15T17:23:22;10.30;1.00
6244;DHT22;3155;49.940;8.450;2022-11-15T17:25:58;10.20;1.00
6244;DHT22;3155;49.940;8.450;2022-11-15T17:28:45;10.20;91.20
6244;DHT22;3155;49.940;8.450;2022-11-15T17:31:13;10.20;99.90
6244;DHT22;3155;49.940;8.450;2022-11-15T17:33:40;10.20;1.00
6244;DHT22;3155;49.940;8.450;2022-11-15T17:36:09;10.20;1.00
6244;DHT22;3155;49.940;8.450;2022-11-15T17:38:41;10.10;23.60
6244;DHT22;3155;49.940;8.450;2022-11-15T17:41:13;10.10;99.90
6244;DHT22;3155;49.940;8.450;2022-11-15T17:43:40;10.10;99.90
6244;DHT22;3155;49.940;8.450;2022-11-15T17:46:13;10.10;1.00
6244;DHT22;3155;49.940;8.450;2022-11-15T17:48:40;10.10;1.00
6244;DHT22;3155;49.940;8.450;2022-11-15T17:51:11;10.10;1.00
6244;DHT22;3155;49.940;8.450;2022-11-15T17:53:41;10.10;1.00
6244;DHT22;3155;49.940;8.450;2022-11-15T17:56:14;10.10;99.90
6244;DHT22;3155;49.940;8.450;2022-11-15T17:58:50;10.10;99.90
6244;DHT22;3155;49.940;8.450;2022-11-15T18:01:24;10.10;1.00
6244;DHT22;3155;49.940;8.450;2022-11-15T18:03:51;10.10;1.00
6244;DHT22;3155;49.940;8.450;2022-11-15T18:06:20;10.20;1.00
6244;DHT22;3155;49.940;8.450;2022-11-15T18:08:49;10.10;1.00
6244;DHT22;3155;49.940;8.450;2022-11-15T18:13:49;10.10;1.00
6244;DHT22;3155;49.940;8.450;2022-11-15T18:16:20;10.20;1.00
6244;DHT22;3155;49.940;8.450;2022-11-15T18:18:47;10.20;1.00
6244;DHT22;3155;49.940;8.450;2022-11-15T18:21:17;10.20;1.00
6244;DHT22;3155;49.940;8.450;2022-11-15T18:23:45;10.20;62.20
6244;DHT22;3155;49.940;8.450;2022-11-15T18:26:14;10.20;78.80
6244;DHT22;3155;49.940;8.450;2022-11-15T18:28:47;10.30;99.90
6244;DHT22;3155;49.940;8.450;2022-11-15T18:31:17;10.30;99.90
6244;DHT22;3155;49.940;8.450;2022-11-15T18:33:44;10.30;99.90
6244;DHT22;3155;49.940;8.450;2022-11-15T18:36:17;10.30;99.90
6244;DHT22;3155;49.940;8.450;2022-11-15T18:38:44;10.20;99.90
6244;DHT22;3155;49.940;8.450;2022-11-15T18:41:16;10.20;99.90
6244;DHT22;3155;49.940;8.450;2022-11-15T18:43:46;10.20;99.90
6244;DHT22;3155;49.940;8.450;2022-11-15T18:46:18;10.30;99.90
6244;DHT22;3155;49.940;8.450;2022-11-15T18:48:47;10.30;99.90
6244;DHT22;3155;49.940;8.450;2022-11-15T18:51:17;10.30;99.90
6244;DHT22;3155;49.940;8.450;2022-11-15T18:53:52;10.20;99.90
6244;DHT22;3155;49.940;8.450;2022-11-15T18:56:22;10.20;99.90
6244;DHT22;3155;49.940;8.450;2022-11-15T18:58:55;10.10;99.90
6244;DHT22;3155;49.940;8.450;2022-11-15T19:01:24;10.10;99.90